sensor_id;sensor_type;location;lat;lon;timestamp;P1;durP1;ratioP1;P2;durP2;ratioP2
35306;SDS011;21420;52.196;21.416;2023-11-22T00:03:30;18.00;;;11.40;;
35306;SDS011;21420;52.196;21.416;2023-11-22T00:05:58;16.10;;;10.90;;
35306;SDS011;21420;52.196;21.416;2023-11-22T00:08:25;22.70;;;11.60;;
35306;SDS011;21420;52.196;21.416;2023-11-22T00:10:51;17.40;;;11.60;;
35306;SDS011;21420;52.196;21.416;2023-11-22T00:13:18;15.60;;;11.00;;
35306;SDS011;21420;52.196;21.416;2023-11-22T00:15:45;15.10;;;10.30;;
35306;SDS011;21420;52.196;21.416;2023-11-22T00:18:11;19.50;;;10.60;;
35306;SDS011;21420;52.196;21.416;2023-11-22T00:20:38;15.00;;;10.10;;
35306;SDS011;21420;52.196;21.416;2023-11-22T00:23:06;18.90;;;11.80;;
35306;SDS011;21420;52.196;21.416;2023-11-22T00:25:32;16.50;;;10.90;;
35306;SDS011;21420;52.196;21.416;2023-11-22T00:28:00;17.70;;;10.60;;
35306;SDS011;21420;52.196;21.416;2023-11-22T00:30:27;15.20;;;9.90;;
35306;SDS011;21420;52.196;21.416;2023-11-22T00:32:54;18.00;;;10.20;;
35306;SDS011;21420;52.196;21.416;2023-11-22T00:35:21;13.60;;;9.70;;
35306;SDS011;21420;52.196;21.416;2023-11-22T00:37:49;15.00;;;9.60;;
35306;SDS011;21420;52.196;21.416;2023-11-22T00:40:16;13.60;;;8.60;;
35306;SDS011;21420;52.196;21.416;2023-11-22T00:42:43;13.00;;;8.90;;
35306;SDS011;21420;52.196;21.416;2023-11-22T00:45:10;14.10;;;9.40;;
35306;SDS011;21420;52.196;21.416;2023-11-22T00:47:37;13.70;;;9.10;;
35306;SDS011;21420;52.196;21.416;2023-11-22T00:50:06;14.60;;;8.60;;
35306;SDS011;21420;52.196;21.416;2023-11-22T00:52:34;13.30;;;7.60;;
35306;SDS011;21420;52.196;21.416;2023-11-22T00:55:01;14.10;;;8.70;;
35306;SDS011;21420;52.196;21.416;2023-11-22T00:57:28;11.70;;;8.10;;
35306;SDS011;21420;52.196;21.416;2023-11-22T00:59:56;12.90;;;9.30;;
35306;SDS011;21420;52.196;21.416;2023-11-22T01:02:23;12.90;;;8.60;;
35306;SDS011;21420;52.196;21.416;2023-11-22T01:04:50;12.00;;;8.30;;
35306;SDS011;21420;52.196;21.416;2023-11-22T01:07:16;14.00;;;9.30;;
35306;SDS011;21420;52.196;21.416;2023-11-22T01:09:43;13.40;;;8.70;;
35306;SDS011;21420;52.196;21.416;2023-11-22T01:12:10;13.00;;;8.70;;
35306;SDS011;21420;52.196;21.416;2023-11-22T01:14:38;12.20;;;8.60;;
35306;SDS011;21420;52.196;21.416;2023-11-22T01:17:05;13.60;;;8.90;;
35306;SDS011;21420;52.196;21.416;2023-11-22T01:19:32;13.70;;;8.40;;
35306;SDS011;21420;52.196;21.416;2023-11-22T01:22:00;11.20;;;7.80;;
35306;SDS011;21420;52.196;21.416;2023-11-22T01:24:26;13.10;;;8.50;;
35306;SDS011;21420;52.196;21.416;2023-11-22T01:26:54;17.30;;;8.60;;
35306;SDS011;21420;52.196;21.416;2023-11-22T01:29:23;11.30;;;8.40;;
35306;SDS011;21420;52.196;21.416;2023-11-22T01:31:50;14.70;;;8.40;;
35306;SDS011;21420;52.196;21.416;2023-11-22T01:34:17;12.50;;;8.70;;
35306;SDS011;21420;52.196;21.416;2023-11-22T01:36:43;13.10;;;8.10;;
35306;SDS011;21420;52.196;21.416;2023-11-22T01:39:13;12.70;;;8.80;;
35306;SDS011;21420;52.196;21.416;2023-11-22T01:41:40;11.70;;;7.80;;
35306;SDS011;21420;52.196;21.416;2023-11-22T01:44:10;11.90;;;7.80;;
35306;SDS011;21420;52.196;21.416;2023-11-22T01:46:37;12.50;;;7.70;;
35306;SDS011;21420;52.196;21.416;2023-11-22T01:49:04;12.70;;;8.60;;
35306;SDS011;21420;52.196;21.416;2023-11-22T01:51:31;17.60;;;8.00;;
35306;SDS011;21420;52.196;21.416;2023-11-22T01:53:58;11.90;;;8.40;;
35306;SDS011;21420;52.196;21.416;2023-11-22T01:56:28;14.40;;;8.10;;
35306;SDS011;21420;52.196;21.416;2023-11-22T01:58:56;10.70;;;7.60;;
35306;SDS011;21420;52.196;21.416;2023-11-22T02:01:25;10.60;;;7.30;;
35306;SDS011;21420;52.196;21.416;2023-11-22T02:03:53;12.90;;;7.60;;
35306;SDS011;21420;52.196;21.416;2023-11-22T02:06:20;13.30;;;7.80;;
35306;SDS011;21420;52.196;21.416;2023-11-22T02:08:48;10.40;;;7.30;;
35306;SDS011;21420;52.196;21.416;2023-11-22T02:11:18;11.20;;;7.50;;
35306;SDS011;21420;52.196;21.416;2023-11-22T02:13:49;9.90;;;7.00;;
35306;SDS011;21420;52.196;21.416;2023-11-22T02:16:18;10.80;;;7.50;;
35306;SDS011;21420;52.196;21.416;2023-11-22T02:18:46;12.50;;;7.30;;
35306;SDS011;21420;52.196;21.416;2023-11-22T02:21:17;11.10;;;7.00;;
35306;SDS011;21420;52.196;21.416;2023-11-22T02:23:44;12.60;;;7.30;;
35306;SDS011;21420;52.196;21.416;2023-11-22T02:26:11;11.70;;;7.20;;
35306;SDS011;21420;52.196;21.416;2023-11-22T02:28:39;8.30;;;6.10;;
35306;SDS011;21420;52.196;21.416;2023-11-22T02:31:05;10.10;;;6.60;;
35306;SDS011;21420;52.196;21.416;2023-11-22T02:33:32;9.70;;;6.40;;
35306;SDS011;21420;52.196;21.416;2023-11-22T02:35:59;11.90;;;7.20;;
35306;SDS011;21420;52.196;21.416;2023-11-22T02:38:25;11.40;;;7.30;;
35306;SDS011;21420;52.196;21.416;2023-11-22T02:40:54;10.10;;;6.90;;
35306;SDS011;21420;52.196;21.416;2023-11-22T02:43:21;10.00;;;7.80;;
35306;SDS011;21420;52.196;21.416;2023-11-22T02:45:49;10.00;;;6.80;;
35306;SDS011;21420;52.196;21.416;2023-11-22T02:48:17;9.20;;;6.10;;
35306;SDS011;21420;52.196;21.416;2023-11-22T02:50:45;8.50;;;6.30;;
35306;SDS011;21420;52.196;21.416;2023-11-22T02:53:11;12.30;;;6.20;;
35306;SDS011;21420;52.196;21.416;2023-11-22T02:55:39;9.60;;;6.30;;
35306;SDS011;21420;52.196;21.416;2023-11-22T02:58:06;9.00;;;6.30;;
35306;SDS011;21420;52.196;21.416;2023-11-22T03:00:33;8.70;;;6.20;;
35306;SDS011;21420;52.196;21.416;2023-11-22T03:03:01;9.80;;;6.80;;
35306;SDS011;21420;52.196;21.416;2023-11-22T03:05:30;7.80;;;6.00;;
35306;SDS011;21420;52.196;21.416;2023-11-22T03:07:57;8.40;;;6.20;;
35306;SDS011;21420;52.196;21.416;2023-11-22T03:10:24;8.50;;;6.20;;
35306;SDS011;21420;52.196;21.416;2023-11-22T03:12:52;9.00;;;5.70;;
35306;SDS011;21420;52.196;21.416;2023-11-22T03:18:23;8.70;;;6.50;;
35306;SDS011;21420;52.196;21.416;2023-11-22T03:20:49;10.20;;;6.60;;
35306;SDS011;21420;52.196;21.416;2023-11-22T03:23:21;8.90;;;5.90;;
35306;SDS011;21420;52.196;21.416;2023-11-22T03:25:47;8.50;;;6.20;;
35306;SDS011;21420;52.196;21.416;2023-11-22T03:28:14;12.60;;;10.20;;
35306;SDS011;21420;52.196;21.416;2023-11-22T03:30:41;11.20;;;9.20;;
35306;SDS011;21420;52.196;21.416;2023-11-22T03:33:08;8.40;;;6.20;;
35306;SDS011;21420;52.196;21.416;2023-11-22T03:35:35;9.10;;;7.50;;
35306;SDS011;21420;52.196;21.416;2023-11-22T03:38:02;11.10;;;8.70;;
35306;SDS011;21420;52.196;21.416;2023-11-22T03:40:29;12.10;;;10.60;;
35306;SDS011;21420;52.196;21.416;2023-11-22T03:42:56;10.50;;;7.70;;
35306;SDS011;21420;52.196;21.416;2023-11-22T03:45:22;13.40;;;7.40;;
35306;SDS011;21420;52.196;21.416;2023-11-22T03:47:49;8.30;;;6.30;;
35306;SDS011;21420;52.196;21.416;2023-11-22T03:50:16;12.50;;;7.60;;
35306;SDS011;21420;52.196;21.416;2023-11-22T03:52:43;9.00;;;6.40;;
35306;SDS011;21420;52.196;21.416;2023-11-22T03:55:10;9.30;;;6.70;;
35306;SDS011;21420;52.196;21.416;2023-11-22T03:57:36;8.70;;;6.20;;
35306;SDS011;21420;52.196;21.416;2023-11-22T04:00:03;7.90;;;6.10;;
35306;SDS011;21420;52.196;21.416;2023-11-22T04:02:37;11.60;;;6.70;;
35306;SDS011;21420;52.196;21.416;2023-11-22T04:05:05;7.30;;;5.90;;
35306;SDS011;21420;52.196;21.416;2023-11-22T04:07:33;10.40;;;6.40;;
35306;SDS011;21420;52.196;21.416;2023-11-22T04:10:00;9.30;;;6.70;;
35306;SDS011;21420;52.196;21.416;2023-11-22T04:12:27;8.90;;;6.60;;
35306;SDS011;21420;52.196;21.416;2023-11-22T04:14:54;9.40;;;7.00;;
35306;SDS011;21420;52.196;21.416;2023-11-22T04:17:21;8.90;;;6.80;;
35306;SDS011;21420;52.196;21.416;2023-11-22T04:19:48;9.60;;;6.80;;
35306;SDS011;21420;52.196;21.416;2023-11-22T04:22:15;9.90;;;7.20;;
35306;SDS011;21420;52.196;21.416;2023-11-22T04:24:42;7.80;;;5.90;;
35306;SDS011;21420;52.196;21.416;2023-11-22T04:27:09;8.90;;;6.70;;
35306;SDS011;21420;52.196;21.416;2023-11-22T04:29:35;9.90;;;6.80;;
35306;SDS011;21420;52.196;21.416;2023-11-22T04:32:02;8.20;;;6.60;;
35306;SDS011;21420;52.196;21.416;2023-11-22T04:34:29;10.10;;;7.10;;
35306;SDS011;21420;52.196;21.416;2023-11-22T04:36:56;13.00;;;7.30;;
35306;SDS011;21420;52.196;21.416;2023-11-22T04:39:23;9.60;;;6.70;;
35306;SDS011;21420;52.196;21.416;2023-11-22T04:41:50;10.30;;;6.50;;
35306;SDS011;21420;52.196;21.416;2023-11-22T04:44:17;8.60;;;6.70;;
35306;SDS011;21420;52.196;21.416;2023-11-22T04:46:44;8.90;;;6.60;;
35306;SDS011;21420;52.196;21.416;2023-11-22T04:49:11;8.50;;;6.60;;
35306;SDS011;21420;52.196;21.416;2023-11-22T04:51:38;11.10;;;6.60;;
35306;SDS011;21420;52.196;21.416;2023-11-22T04:54:05;8.70;;;5.60;;
35306;SDS011;21420;52.196;21.416;2023-11-22T04:56:31;9.50;;;6.90;;
35306;SDS011;21420;52.196;21.416;2023-11-22T04:58:58;8.90;;;6.20;;
35306;SDS011;21420;52.196;21.416;2023-11-22T05:01:30;11.80;;;7.20;;
35306;SDS011;21420;52.196;21.416;2023-11-22T05:03:58;9.10;;;6.70;;
35306;SDS011;21420;52.196;21.416;2023-11-22T05:06:27;10.70;;;6.90;;
35306;SDS011;21420;52.196;21.416;2023-11-22T05:08:55;9.90;;;6.90;;
35306;SDS011;21420;52.196;21.416;2023-11-22T05:11:22;9.50;;;6.50;;
35306;SDS011;21420;52.196;21.416;2023-11-22T05:13:49;10.50;;;6.80;;
35306;SDS011;21420;52.196;21.416;2023-11-22T05:16:17;9.30;;;7.10;;
35306;SDS011;21420;52.196;21.416;2023-11-22T05:18:44;10.90;;;7.50;;
35306;SDS011;21420;52.196;21.416;2023-11-22T05:21:12;9.30;;;6.90;;
35306;SDS011;21420;52.196;21.416;2023-11-22T05:23:38;14.40;;;9.70;;
35306;SDS011;21420;52.196;21.416;2023-11-22T05:28:34;22.30;;;12.00;;
35306;SDS011;21420;52.196;21.416;2023-11-22T05:31:01;20.30;;;11.10;;
35306;SDS011;21420;52.196;21.416;2023-11-22T05:33:28;23.30;;;11.20;;
35306;SDS011;21420;52.196;21.416;2023-11-22T05:35:55;18.90;;;9.50;;
35306;SDS011;21420;52.196;21.416;2023-11-22T05:38:21;16.40;;;9.90;;
35306;SDS011;21420;52.196;21.416;2023-11-22T05:40:48;13.10;;;8.60;;
35306;SDS011;21420;52.196;21.416;2023-11-22T05:45:47;14.70;;;8.70;;
35306;SDS011;21420;52.196;21.416;2023-11-22T05:48:16;13.40;;;8.80;;
35306;SDS011;21420;52.196;21.416;2023-11-22T05:50:43;14.60;;;8.70;;
35306;SDS011;21420;52.196;21.416;2023-11-22T05:53:10;13.70;;;8.40;;
35306;SDS011;21420;52.196;21.416;2023-11-22T05:55:37;17.30;;;8.80;;
35306;SDS011;21420;52.196;21.416;2023-11-22T05:58:04;17.60;;;9.50;;
35306;SDS011;21420;52.196;21.416;2023-11-22T06:00:31;25.20;;;11.10;;
35306;SDS011;21420;52.196;21.416;2023-11-22T06:02:57;18.40;;;8.90;;
35306;SDS011;21420;52.196;21.416;2023-11-22T06:05:25;16.70;;;9.40;;
35306;SDS011;21420;52.196;21.416;2023-11-22T06:07:52;12.00;;;7.70;;
35306;SDS011;21420;52.196;21.416;2023-11-22T06:10:18;19.10;;;7.60;;
35306;SDS011;21420;52.196;21.416;2023-11-22T06:12:46;14.20;;;8.60;;
35306;SDS011;21420;52.196;21.416;2023-11-22T06:15:12;24.90;;;11.90;;
35306;SDS011;21420;52.196;21.416;2023-11-22T06:17:39;22.10;;;11.90;;
35306;SDS011;21420;52.196;21.416;2023-11-22T06:20:06;25.50;;;12.90;;
35306;SDS011;21420;52.196;21.416;2023-11-22T06:22:34;20.10;;;11.20;;
35306;SDS011;21420;52.196;21.416;2023-11-22T06:25:00;14.80;;;8.80;;
35306;SDS011;21420;52.196;21.416;2023-11-22T06:27:27;18.80;;;9.50;;
35306;SDS011;21420;52.196;21.416;2023-11-22T06:29:54;16.00;;;9.00;;
35306;SDS011;21420;52.196;21.416;2023-11-22T06:32:20;20.60;;;9.80;;
35306;SDS011;21420;52.196;21.416;2023-11-22T06:34:47;18.00;;;9.50;;
35306;SDS011;21420;52.196;21.416;2023-11-22T06:37:14;18.50;;;9.50;;
35306;SDS011;21420;52.196;21.416;2023-11-22T06:39:40;15.90;;;9.70;;
35306;SDS011;21420;52.196;21.416;2023-11-22T06:42:09;23.60;;;10.70;;
35306;SDS011;21420;52.196;21.416;2023-11-22T06:44:37;17.50;;;11.40;;
35306;SDS011;21420;52.196;21.416;2023-11-22T06:47:03;22.40;;;12.50;;
35306;SDS011;21420;52.196;21.416;2023-11-22T06:49:30;29.30;;;16.40;;
35306;SDS011;21420;52.196;21.416;2023-11-22T06:51:57;21.40;;;12.60;;
35306;SDS011;21420;52.196;21.416;2023-11-22T06:54:24;19.50;;;11.10;;
35306;SDS011;21420;52.196;21.416;2023-11-22T06:56:51;27.10;;;14.20;;
35306;SDS011;21420;52.196;21.416;2023-11-22T06:59:17;23.10;;;13.90;;
35306;SDS011;21420;52.196;21.416;2023-11-22T07:01:45;25.30;;;13.70;;
35306;SDS011;21420;52.196;21.416;2023-11-22T07:04:12;22.00;;;13.30;;
35306;SDS011;21420;52.196;21.416;2023-11-22T07:06:39;15.70;;;9.00;;
35306;SDS011;21420;52.196;21.416;2023-11-22T07:09:06;12.80;;;8.10;;
35306;SDS011;21420;52.196;21.416;2023-11-22T07:11:36;14.10;;;8.10;;
35306;SDS011;21420;52.196;21.416;2023-11-22T07:14:03;14.20;;;8.60;;
35306;SDS011;21420;52.196;21.416;2023-11-22T07:16:30;17.80;;;9.50;;
35306;SDS011;21420;52.196;21.416;2023-11-22T07:18:57;18.20;;;10.10;;
35306;SDS011;21420;52.196;21.416;2023-11-22T07:21:24;23.30;;;10.60;;
35306;SDS011;21420;52.196;21.416;2023-11-22T07:23:50;19.50;;;10.70;;
35306;SDS011;21420;52.196;21.416;2023-11-22T07:26:19;24.10;;;15.70;;
35306;SDS011;21420;52.196;21.416;2023-11-22T07:28:46;18.30;;;13.50;;
35306;SDS011;21420;52.196;21.416;2023-11-22T07:31:13;11.20;;;7.90;;
35306;SDS011;21420;52.196;21.416;2023-11-22T07:33:40;8.30;;;7.00;;
35306;SDS011;21420;52.196;21.416;2023-11-22T07:36:08;12.90;;;6.80;;
35306;SDS011;21420;52.196;21.416;2023-11-22T07:38:36;8.90;;;7.10;;
35306;SDS011;21420;52.196;21.416;2023-11-22T07:41:04;13.30;;;9.20;;
35306;SDS011;21420;52.196;21.416;2023-11-22T07:43:34;19.90;;;10.50;;
35306;SDS011;21420;52.196;21.416;2023-11-22T07:46:06;15.30;;;10.60;;
35306;SDS011;21420;52.196;21.416;2023-11-22T07:48:40;14.70;;;9.20;;
35306;SDS011;21420;52.196;21.416;2023-11-22T07:51:09;12.10;;;7.40;;
35306;SDS011;21420;52.196;21.416;2023-11-22T07:53:36;14.70;;;9.50;;
35306;SDS011;21420;52.196;21.416;2023-11-22T07:56:03;19.30;;;12.50;;
35306;SDS011;21420;52.196;21.416;2023-11-22T07:58:31;14.60;;;8.30;;
35306;SDS011;21420;52.196;21.416;2023-11-22T08:00:58;20.80;;;16.70;;
35306;SDS011;21420;52.196;21.416;2023-11-22T08:03:26;10.20;;;8.30;;
35306;SDS011;21420;52.196;21.416;2023-11-22T08:05:56;11.10;;;8.60;;
35306;SDS011;21420;52.196;21.416;2023-11-22T08:08:23;14.90;;;9.50;;
35306;SDS011;21420;52.196;21.416;2023-11-22T08:10:50;17.50;;;15.00;;
35306;SDS011;21420;52.196;21.416;2023-11-22T08:15:49;10.80;;;8.50;;
35306;SDS011;21420;52.196;21.416;2023-11-22T08:18:16;15.20;;;11.40;;
35306;SDS011;21420;52.196;21.416;2023-11-22T08:20:43;10.20;;;8.60;;
35306;SDS011;21420;52.196;21.416;2023-11-22T08:23:10;14.60;;;9.60;;
35306;SDS011;21420;52.196;21.416;2023-11-22T08:25:39;10.70;;;8.40;;
35306;SDS011;21420;52.196;21.416;2023-11-22T08:28:09;10.10;;;8.00;;
35306;SDS011;21420;52.196;21.416;2023-11-22T08:30:36;10.30;;;8.00;;
35306;SDS011;21420;52.196;21.416;2023-11-22T08:33:03;11.40;;;9.50;;
35306;SDS011;21420;52.196;21.416;2023-11-22T08:35:30;11.40;;;8.80;;
35306;SDS011;21420;52.196;21.416;2023-11-22T08:37:57;12.70;;;9.20;;
35306;SDS011;21420;52.196;21.416;2023-11-22T08:40:24;11.20;;;8.10;;
35306;SDS011;21420;52.196;21.416;2023-11-22T08:42:52;12.90;;;9.80;;
35306;SDS011;21420;52.196;21.416;2023-11-22T08:45:20;11.40;;;8.30;;
35306;SDS011;21420;52.196;21.416;2023-11-22T08:47:47;10.10;;;8.40;;
35306;SDS011;21420;52.196;21.416;2023-11-22T08:50:14;9.80;;;8.30;;
35306;SDS011;21420;52.196;21.416;2023-11-22T08:52:42;9.70;;;8.20;;
35306;SDS011;21420;52.196;21.416;2023-11-22T08:55:12;10.60;;;8.90;;
35306;SDS011;21420;52.196;21.416;2023-11-22T08:57:41;10.20;;;8.40;;
35306;SDS011;21420;52.196;21.416;2023-11-22T09:00:08;13.10;;;9.10;;
35306;SDS011;21420;52.196;21.416;2023-11-22T09:02:36;9.00;;;7.70;;
35306;SDS011;21420;52.196;21.416;2023-11-22T09:05:05;8.80;;;7.40;;
35306;SDS011;21420;52.196;21.416;2023-11-22T09:07:36;7.90;;;7.10;;
35306;SDS011;21420;52.196;21.416;2023-11-22T09:10:05;8.20;;;6.90;;
35306;SDS011;21420;52.196;21.416;2023-11-22T09:12:37;9.50;;;8.20;;
35306;SDS011;21420;52.196;21.416;2023-11-22T09:15:08;14.60;;;12.00;;
35306;SDS011;21420;52.196;21.416;2023-11-22T09:17:53;14.00;;;10.70;;
35306;SDS011;21420;52.196;21.416;2023-11-22T09:20:20;15.00;;;10.90;;
35306;SDS011;21420;52.196;21.416;2023-11-22T09:22:48;20.90;;;13.70;;
35306;SDS011;21420;52.196;21.416;2023-11-22T09:25:17;20.90;;;14.70;;
35306;SDS011;21420;52.196;21.416;2023-11-22T09:27:47;12.90;;;8.70;;
35306;SDS011;21420;52.196;21.416;2023-11-22T09:30:20;23.00;;;18.70;;
35306;SDS011;21420;52.196;21.416;2023-11-22T09:33:10;13.40;;;10.60;;
35306;SDS011;21420;52.196;21.416;2023-11-22T09:35:41;10.90;;;8.50;;
35306;SDS011;21420;52.196;21.416;2023-11-22T09:38:13;11.30;;;8.00;;
35306;SDS011;21420;52.196;21.416;2023-11-22T09:40:43;9.90;;;7.90;;
35306;SDS011;21420;52.196;21.416;2023-11-22T09:43:14;11.20;;;7.20;;
35306;SDS011;21420;52.196;21.416;2023-11-22T09:45:50;8.80;;;6.60;;
35306;SDS011;21420;52.196;21.416;2023-11-22T09:48:23;9.50;;;6.90;;
35306;SDS011;21420;52.196;21.416;2023-11-22T09:51:02;10.90;;;7.90;;
35306;SDS011;21420;52.196;21.416;2023-11-22T09:56:18;10.90;;;8.50;;
35306;SDS011;21420;52.196;21.416;2023-11-22T09:58:46;10.40;;;8.50;;
35306;SDS011;21420;52.196;21.416;2023-11-22T10:01:23;8.80;;;6.60;;
35306;SDS011;21420;52.196;21.416;2023-11-22T10:03:50;10.40;;;7.30;;
35306;SDS011;21420;52.196;21.416;2023-11-22T10:06:17;9.40;;;7.60;;
35306;SDS011;21420;52.196;21.416;2023-11-22T10:08:44;14.80;;;7.20;;
35306;SDS011;21420;52.196;21.416;2023-11-22T10:11:17;9.00;;;6.10;;
35306;SDS011;21420;52.196;21.416;2023-11-22T10:13:48;9.20;;;6.70;;
35306;SDS011;21420;52.196;21.416;2023-11-22T10:16:17;11.60;;;6.80;;
35306;SDS011;21420;52.196;21.416;2023-11-22T10:18:48;11.20;;;7.80;;
35306;SDS011;21420;52.196;21.416;2023-11-22T10:21:20;10.10;;;7.90;;
35306;SDS011;21420;52.196;21.416;2023-11-22T10:23:57;12.10;;;8.00;;
35306;SDS011;21420;52.196;21.416;2023-11-22T10:26:28;10.30;;;7.30;;
35306;SDS011;21420;52.196;21.416;2023-11-22T10:28:56;12.80;;;8.00;;
35306;SDS011;21420;52.196;21.416;2023-11-22T10:31:24;8.80;;;6.70;;
35306;SDS011;21420;52.196;21.416;2023-11-22T10:33:51;9.80;;;7.30;;
35306;SDS011;21420;52.196;21.416;2023-11-22T10:36:21;17.50;;;13.70;;
35306;SDS011;21420;52.196;21.416;2023-11-22T10:38:49;6.80;;;5.20;;
35306;SDS011;21420;52.196;21.416;2023-11-22T10:41:20;5.50;;;4.70;;
35306;SDS011;21420;52.196;21.416;2023-11-22T10:43:53;7.80;;;6.00;;
35306;SDS011;21420;52.196;21.416;2023-11-22T10:46:29;5.60;;;5.00;;
35306;SDS011;21420;52.196;21.416;2023-11-22T10:48:57;7.10;;;5.70;;
35306;SDS011;21420;52.196;21.416;2023-11-22T10:51:30;6.90;;;5.80;;
35306;SDS011;21420;52.196;21.416;2023-11-22T10:53:59;5.80;;;5.20;;
35306;SDS011;21420;52.196;21.416;2023-11-22T10:56:28;7.60;;;6.00;;
35306;SDS011;21420;52.196;21.416;2023-11-22T10:58:59;8.60;;;6.40;;
35306;SDS011;21420;52.196;21.416;2023-11-22T11:01:34;7.20;;;6.50;;
35306;SDS011;21420;52.196;21.416;2023-11-22T11:04:02;7.90;;;6.40;;
35306;SDS011;21420;52.196;21.416;2023-11-22T11:06:37;7.50;;;6.00;;
35306;SDS011;21420;52.196;21.416;2023-11-22T11:09:04;7.80;;;6.20;;
35306;SDS011;21420;52.196;21.416;2023-11-22T11:11:32;10.30;;;9.20;;
35306;SDS011;21420;52.196;21.416;2023-11-22T11:14:04;7.40;;;6.40;;
35306;SDS011;21420;52.196;21.416;2023-11-22T11:16:36;6.50;;;5.30;;
35306;SDS011;21420;52.196;21.416;2023-11-22T11:19:08;5.60;;;4.90;;
35306;SDS011;21420;52.196;21.416;2023-11-22T11:21:36;7.50;;;5.80;;
35306;SDS011;21420;52.196;21.416;2023-11-22T11:24:03;12.80;;;7.20;;
35306;SDS011;21420;52.196;21.416;2023-11-22T11:26:33;11.20;;;7.00;;
35306;SDS011;21420;52.196;21.416;2023-11-22T11:29:04;7.00;;;5.80;;
35306;SDS011;21420;52.196;21.416;2023-11-22T11:31:33;7.80;;;5.50;;
35306;SDS011;21420;52.196;21.416;2023-11-22T11:34:06;7.10;;;5.70;;
35306;SDS011;21420;52.196;21.416;2023-11-22T11:36:36;6.90;;;5.20;;
35306;SDS011;21420;52.196;21.416;2023-11-22T11:41:38;7.10;;;6.00;;
35306;SDS011;21420;52.196;21.416;2023-11-22T11:44:08;6.30;;;5.70;;
35306;SDS011;21420;52.196;21.416;2023-11-22T11:46:37;7.60;;;5.70;;
35306;SDS011;21420;52.196;21.416;2023-11-22T11:49:06;6.60;;;5.10;;
35306;SDS011;21420;52.196;21.416;2023-11-22T11:51:35;6.90;;;5.70;;
35306;SDS011;21420;52.196;21.416;2023-11-22T11:54:04;7.00;;;5.20;;
35306;SDS011;21420;52.196;21.416;2023-11-22T11:56:33;6.30;;;5.20;;
35306;SDS011;21420;52.196;21.416;2023-11-22T11:59:01;6.80;;;4.60;;
35306;SDS011;21420;52.196;21.416;2023-11-22T12:01:29;6.20;;;5.10;;
35306;SDS011;21420;52.196;21.416;2023-11-22T12:03:56;7.10;;;5.50;;
35306;SDS011;21420;52.196;21.416;2023-11-22T12:06:24;17.10;;;12.90;;
35306;SDS011;21420;52.196;21.416;2023-11-22T12:08:50;11.90;;;8.70;;
35306;SDS011;21420;52.196;21.416;2023-11-22T12:11:17;38.70;;;25.50;;
35306;SDS011;21420;52.196;21.416;2023-11-22T12:13:44;19.50;;;13.40;;
35306;SDS011;21420;52.196;21.416;2023-11-22T12:16:16;7.00;;;6.00;;
35306;SDS011;21420;52.196;21.416;2023-11-22T12:18:46;7.20;;;5.50;;
35306;SDS011;21420;52.196;21.416;2023-11-22T12:21:15;8.40;;;5.70;;
35306;SDS011;21420;52.196;21.416;2023-11-22T12:23:44;8.70;;;6.30;;
35306;SDS011;21420;52.196;21.416;2023-11-22T12:26:15;9.30;;;6.20;;
35306;SDS011;21420;52.196;21.416;2023-11-22T12:31:26;8.60;;;6.00;;
35306;SDS011;21420;52.196;21.416;2023-11-22T12:33:56;8.20;;;6.20;;
35306;SDS011;21420;52.196;21.416;2023-11-22T12:36:24;6.50;;;5.70;;
35306;SDS011;21420;52.196;21.416;2023-11-22T12:38:51;7.40;;;5.80;;
35306;SDS011;21420;52.196;21.416;2023-11-22T12:41:28;7.90;;;5.80;;
35306;SDS011;21420;52.196;21.416;2023-11-22T12:44:06;7.20;;;5.60;;
35306;SDS011;21420;52.196;21.416;2023-11-22T12:46:48;7.40;;;6.00;;
35306;SDS011;21420;52.196;21.416;2023-11-22T12:49:16;8.90;;;6.80;;
35306;SDS011;21420;52.196;21.416;2023-11-22T12:51:46;8.30;;;6.90;;
35306;SDS011;21420;52.196;21.416;2023-11-22T12:54:18;7.60;;;6.00;;
35306;SDS011;21420;52.196;21.416;2023-11-22T12:56:51;5.70;;;4.80;;
35306;SDS011;21420;52.196;21.416;2023-11-22T12:59:26;7.90;;;6.10;;
35306;SDS011;21420;52.196;21.416;2023-11-22T13:02:00;6.50;;;5.50;;
35306;SDS011;21420;52.196;21.416;2023-11-22T13:04:28;7.90;;;6.00;;
35306;SDS011;21420;52.196;21.416;2023-11-22T13:09:27;13.80;;;8.00;;
35306;SDS011;21420;52.196;21.416;2023-11-22T13:11:56;9.60;;;7.40;;
35306;SDS011;21420;52.196;21.416;2023-11-22T13:14:22;7.50;;;6.60;;
35306;SDS011;21420;52.196;21.416;2023-11-22T13:16:50;7.20;;;6.30;;
35306;SDS011;21420;52.196;21.416;2023-11-22T13:19:17;7.80;;;6.50;;
35306;SDS011;21420;52.196;21.416;2023-11-22T13:21:43;7.80;;;6.60;;
35306;SDS011;21420;52.196;21.416;2023-11-22T13:24:11;7.40;;;6.00;;
35306;SDS011;21420;52.196;21.416;2023-11-22T13:26:40;7.50;;;5.40;;
35306;SDS011;21420;52.196;21.416;2023-11-22T13:29:07;9.10;;;5.80;;
35306;SDS011;21420;52.196;21.416;2023-11-22T13:31:34;9.10;;;6.60;;
35306;SDS011;21420;52.196;21.416;2023-11-22T13:34:01;9.30;;;6.70;;
35306;SDS011;21420;52.196;21.416;2023-11-22T13:36:28;9.70;;;6.90;;
35306;SDS011;21420;52.196;21.416;2023-11-22T13:38:55;9.00;;;7.00;;
35306;SDS011;21420;52.196;21.416;2023-11-22T13:41:22;8.80;;;7.20;;
35306;SDS011;21420;52.196;21.416;2023-11-22T13:43:52;10.60;;;7.10;;
35306;SDS011;21420;52.196;21.416;2023-11-22T13:46:19;8.40;;;6.30;;
35306;SDS011;21420;52.196;21.416;2023-11-22T13:48:47;10.00;;;7.60;;
35306;SDS011;21420;52.196;21.416;2023-11-22T13:51:14;11.00;;;9.00;;
35306;SDS011;21420;52.196;21.416;2023-11-22T13:53:41;12.90;;;8.60;;
35306;SDS011;21420;52.196;21.416;2023-11-22T13:56:11;11.80;;;8.00;;
35306;SDS011;21420;52.196;21.416;2023-11-22T13:58:40;11.80;;;8.10;;
35306;SDS011;21420;52.196;21.416;2023-11-22T14:01:07;10.20;;;7.90;;
35306;SDS011;21420;52.196;21.416;2023-11-22T14:03:38;14.20;;;8.50;;
35306;SDS011;21420;52.196;21.416;2023-11-22T14:06:06;28.00;;;19.00;;
35306;SDS011;21420;52.196;21.416;2023-11-22T14:08:33;16.50;;;9.90;;
35306;SDS011;21420;52.196;21.416;2023-11-22T14:11:01;11.70;;;9.50;;
35306;SDS011;21420;52.196;21.416;2023-11-22T14:13:28;26.50;;;17.70;;
35306;SDS011;21420;52.196;21.416;2023-11-22T14:15:55;21.40;;;12.30;;
35306;SDS011;21420;52.196;21.416;2023-11-22T14:18:22;17.00;;;10.30;;
35306;SDS011;21420;52.196;21.416;2023-11-22T14:20:51;11.70;;;7.80;;
35306;SDS011;21420;52.196;21.416;2023-11-22T14:23:18;11.60;;;7.50;;
35306;SDS011;21420;52.196;21.416;2023-11-22T14:25:45;9.60;;;7.40;;
35306;SDS011;21420;52.196;21.416;2023-11-22T14:28:12;54.20;;;20.70;;
35306;SDS011;21420;52.196;21.416;2023-11-22T14:30:40;248.60;;;55.70;;
35306;SDS011;21420;52.196;21.416;2023-11-22T14:33:09;100.80;;;28.30;;
35306;SDS011;21420;52.196;21.416;2023-11-22T14:35:36;193.20;;;76.00;;
35306;SDS011;21420;52.196;21.416;2023-11-22T14:38:03;553.40;;;246.10;;
35306;SDS011;21420;52.196;21.416;2023-11-22T14:40:33;399.20;;;165.90;;
35306;SDS011;21420;52.196;21.416;2023-11-22T14:43:02;39.10;;;21.40;;
35306;SDS011;21420;52.196;21.416;2023-11-22T14:45:30;40.50;;;23.40;;
35306;SDS011;21420;52.196;21.416;2023-11-22T14:47:58;22.40;;;13.00;;
35306;SDS011;21420;52.196;21.416;2023-11-22T14:50:25;18.90;;;10.80;;
35306;SDS011;21420;52.196;21.416;2023-11-22T14:52:54;19.30;;;12.70;;